• Join FlightAware (Why Join?)
  • Login
  • US Flag 
03:33AM EDT


 

Airport Tracker/Info


-or-


 

Live Flight TrackerFlight Track Log ✈ AMF1324 ✈ 13-Nov-2013 ✈ KBUF - KBGM

Flight Track Log - Related Links

Times and Time Zones

All times are in EST time to prevent confusion due to time zone crossing. See the AMF1324 flight status page for this flight to view local times or setup timezone preferences in your user account.

Time Position Orientation Groundspeed Altitude Reporting Facility
EST Latitude Longitude Course Direction KTS MPH feet Rate Location/Type
06:38AM 42.9333 -78.7333 200° South 158 182 1,300  Level Buffalo TRACON
06:39AM 42.9000 -78.7500 200° South 185 213 3,200 2,160 Climbing Buffalo TRACON
06:40AM 42.8744 -78.6683 113° Southeast 203 234 5,800 1,800 Climbing Cleveland Center
06:42AM 42.8633 -78.5894 101° East 218 251 7,400 1,500 Climbing Cleveland Center
06:43AM 42.8489 -78.5025 103° East 225 259 8,900 1,260 Climbing Cleveland Center
06:44AM 42.8342 -78.4272 105° East 228 262 10,100 1,320 Climbing Cleveland Center
06:45AM 42.8211 -78.3436 102° East 225 259 11,700 1,380 Climbing Cleveland Center
06:46AM 42.8075 -78.2483 101° East 214 246 13,000 600 Climbing Cleveland Center
06:47AM 42.7964 -78.1564 99° East 246 283 13,000  Level Cleveland Center
06:48AM 42.7925 -78.0619 93° East 251 289 13,000  Level Cleveland Center
06:49AM 42.7933 -77.9678 89° East 249 287 13,000  Level Cleveland Center
06:50AM 42.8011 -77.8747 83° East 246 283 13,000  Level Cleveland Center
06:51AM 42.8089 -77.7825 83° East 245 282 13,000  Level Cleveland Center
06:52AM 42.8131 -77.6903 86° East 248 285 13,000  Level Cleveland Center
06:53AM 42.7767 -77.5983 118° Southeast 273 314 13,000  Level Cleveland Center
06:54AM 42.7431 -77.5053 116° Southeast 270 311 13,000  Level Cleveland Center
06:55AM 42.7094 -77.4133 116° Southeast 269 310 13,000  Level Cleveland Center
06:56AM 42.6744 -77.3214 117° Southeast 271 312 13,000  Level Cleveland Center
06:57AM 42.6361 -77.2319 120° Southeast 273 314 13,000  Level Cleveland Center
06:58AM 42.5947 -77.1433 122° Southeast 276 318 13,000  Level Cleveland Center
06:59AM 42.5450 -77.0364 122° Southeast 280 322 13,000  Level Cleveland Center
07:00AM 42.5050 -76.9472 121° Southeast 278 320 13,000  Level Cleveland Center
07:01AM 42.4653 -76.8569 121° Southeast 280 322 13,000 -360 Level Cleveland Center
07:02AM 42.4261 -76.7656 120° Southeast 280 322 12,300 -780 Descending Cleveland Center
07:03AM 42.3842 -76.6686 120° Southeast 294 338 11,500 -840 Descending Cleveland Center
07:04AM 42.3453 -76.5706 118° Southeast 297 342 10,600 -1,080 Descending Cleveland Center
07:05AM 42.3053 -76.4703 118° Southeast 301 346 9,400 -1,200 Descending Cleveland Center
07:06AM 42.2672 -76.3731 118° Southeast 293 337 8,200 -1,140 Descending Cleveland Center
07:07AM 42.2483 -76.2800 105° East 261 300 7,100 -1,620 Descending Cleveland Center
07:08AM 42.2306 -76.1678 102° East 255 293 5,000 -1,320 Descending Cleveland Center
07:09AM 42.2150 -76.0894 105° East 254 292 4,400 -780 Descending Cleveland Center
07:10AM 42.1617 -76.0136 133° Southeast 207 238 3,200 -720 Descending New York Center
07:11AM 42.1511 -75.9681 107° East 166 191 2,800 -420 Descending New York Center
07:12AM 42.1567 -75.9347 77° East 114 131 2,400 -420 Descending New York Center